sensor_id;sensor_type;location;lat;lon;timestamp;P1;durP1;ratioP1;P2;durP2;ratioP2
17504;SDS011;8870;50.950;11.762;2023-02-15T00:00:27;8.13;;;7.03;;
17504;SDS011;8870;50.950;11.762;2023-02-15T00:05:58;7.70;;;7.00;;
17504;SDS011;8870;50.950;11.762;2023-02-15T00:11:17;8.15;;;7.15;;
17504;SDS011;8870;50.950;11.762;2023-02-15T00:17:09;10.25;;;8.07;;
17504;SDS011;8870;50.950;11.762;2023-02-15T00:22:27;9.57;;;8.10;;
17504;SDS011;8870;50.950;11.762;2023-02-15T00:27:59;10.07;;;8.48;;
17504;SDS011;8870;50.950;11.762;2023-02-15T00:33:20;10.02;;;8.82;;
17504;SDS011;8870;50.950;11.762;2023-02-15T00:38:51;10.98;;;9.55;;
17504;SDS011;8870;50.950;11.762;2023-02-15T00:44:22;14.50;;;10.85;;
17504;SDS011;8870;50.950;11.762;2023-02-15T00:49:43;14.52;;;10.43;;
17504;SDS011;8870;50.950;11.762;2023-02-15T00:55:14;13.52;;;10.25;;
17504;SDS011;8870;50.950;11.762;2023-02-15T01:00:32;15.55;;;10.93;;
17504;SDS011;8870;50.950;11.762;2023-02-15T01:06:07;11.80;;;10.00;;
17504;SDS011;8870;50.950;11.762;2023-02-15T01:11:25;12.35;;;9.50;;
17504;SDS011;8870;50.950;11.762;2023-02-15T01:16:56;10.80;;;8.30;;
17504;SDS011;8870;50.950;11.762;2023-02-15T01:22:17;8.32;;;7.38;;
17504;SDS011;8870;50.950;11.762;2023-02-15T01:27:48;8.98;;;6.40;;
17504;SDS011;8870;50.950;11.762;2023-02-15T01:33:06;6.85;;;6.15;;
17504;SDS011;8870;50.950;11.762;2023-02-15T01:38:42;7.88;;;6.68;;
17504;SDS011;8870;50.950;11.762;2023-02-15T01:44:01;7.65;;;6.80;;
17504;SDS011;8870;50.950;11.762;2023-02-15T01:49:33;7.85;;;6.68;;
17504;SDS011;8870;50.950;11.762;2023-02-15T01:54:54;8.05;;;6.90;;
17504;SDS011;8870;50.950;11.762;2023-02-15T02:00:26;8.77;;;7.57;;
17504;SDS011;8870;50.950;11.762;2023-02-15T02:05:44;9.90;;;7.88;;
17504;SDS011;8870;50.950;11.762;2023-02-15T02:11:19;7.65;;;6.80;;
17504;SDS011;8870;50.950;11.762;2023-02-15T02:16:39;7.85;;;7.05;;
17504;SDS011;8870;50.950;11.762;2023-02-15T02:22:31;8.88;;;7.43;;
17504;SDS011;8870;50.950;11.762;2023-02-15T02:28:13;8.85;;;7.22;;
17504;SDS011;8870;50.950;11.762;2023-02-15T02:34:09;9.18;;;6.63;;
17504;SDS011;8870;50.950;11.762;2023-02-15T02:39:42;8.43;;;6.68;;
17504;SDS011;8870;50.950;11.762;2023-02-15T02:45:24;7.70;;;6.28;;
17504;SDS011;8870;50.950;11.762;2023-02-15T02:50:48;7.93;;;7.05;;
17504;SDS011;8870;50.950;11.762;2023-02-15T02:56:23;6.68;;;6.05;;
17504;SDS011;8870;50.950;11.762;2023-02-15T03:01:48;6.90;;;6.18;;
17504;SDS011;8870;50.950;11.762;2023-02-15T03:07:25;7.75;;;6.38;;
17504;SDS011;8870;50.950;11.762;2023-02-15T03:12:45;7.93;;;6.80;;
17504;SDS011;8870;50.950;11.762;2023-02-15T03:18:18;7.65;;;6.93;;
17504;SDS011;8870;50.950;11.762;2023-02-15T03:23:43;8.40;;;5.93;;
17504;SDS011;8870;50.950;11.762;2023-02-15T03:29:14;210.98;;;7.90;;
17504;SDS011;8870;50.950;11.762;2023-02-15T03:34:34;149.13;;;5.88;;
17504;SDS011;8870;50.950;11.762;2023-02-15T03:40:09;251.80;;;6.70;;
17504;SDS011;8870;50.950;11.762;2023-02-15T03:45:59;53.03;;;5.38;;
17504;SDS011;8870;50.950;11.762;2023-02-15T03:51:25;34.65;;;5.03;;
17504;SDS011;8870;50.950;11.762;2023-02-15T03:57:02;87.05;;;6.40;;
17504;SDS011;8870;50.950;11.762;2023-02-15T04:02:34;376.05;;;10.25;;
17504;SDS011;8870;50.950;11.762;2023-02-15T04:08:12;302.13;;;9.05;;
17504;SDS011;8870;50.950;11.762;2023-02-15T04:13:33;178.95;;;7.95;;
17504;SDS011;8870;50.950;11.762;2023-02-15T04:19:04;235.73;;;9.07;;
17504;SDS011;8870;50.950;11.762;2023-02-15T04:24:35;6.53;;;5.93;;
17504;SDS011;8870;50.950;11.762;2023-02-15T04:30:23;15.00;;;5.43;;
17504;SDS011;8870;50.950;11.762;2023-02-15T04:35:43;199.20;;;8.27;;
17504;SDS011;8870;50.950;11.762;2023-02-15T04:41:14;285.90;;;11.43;;
17504;SDS011;8870;50.950;11.762;2023-02-15T04:46:35;81.47;;;10.43;;
17504;SDS011;8870;50.950;11.762;2023-02-15T04:52:07;15.30;;;9.63;;
17504;SDS011;8870;50.950;11.762;2023-02-15T04:57:25;33.13;;;9.98;;
17504;SDS011;8870;50.950;11.762;2023-02-15T05:02:59;205.73;;;12.02;;
17504;SDS011;8870;50.950;11.762;2023-02-15T05:08:17;245.77;;;12.38;;
17504;SDS011;8870;50.950;11.762;2023-02-15T05:13:49;198.85;;;13.60;;
17504;SDS011;8870;50.950;11.762;2023-02-15T05:19:10;24.15;;;12.65;;
17504;SDS011;8870;50.950;11.762;2023-02-15T05:24:41;15.07;;;11.48;;
17504;SDS011;8870;50.950;11.762;2023-02-15T05:30:12;28.50;;;11.43;;
17504;SDS011;8870;50.950;11.762;2023-02-15T05:35:47;19.08;;;11.57;;
17504;SDS011;8870;50.950;11.762;2023-02-15T05:41:12;17.55;;;12.55;;
17504;SDS011;8870;50.950;11.762;2023-02-15T05:46:43;15.25;;;12.23;;
17504;SDS011;8870;50.950;11.762;2023-02-15T05:52:04;14.73;;;12.10;;
17504;SDS011;8870;50.950;11.762;2023-02-15T05:57:36;13.88;;;10.85;;
17504;SDS011;8870;50.950;11.762;2023-02-15T06:02:54;13.27;;;10.02;;
17504;SDS011;8870;50.950;11.762;2023-02-15T06:08:28;11.85;;;10.20;;
17504;SDS011;8870;50.950;11.762;2023-02-15T06:13:46;12.15;;;9.57;;
17504;SDS011;8870;50.950;11.762;2023-02-15T06:19:18;10.57;;;9.10;;
17504;SDS011;8870;50.950;11.762;2023-02-15T06:24:40;9.68;;;8.35;;
17504;SDS011;8870;50.950;11.762;2023-02-15T06:30:12;10.40;;;9.00;;
17504;SDS011;8870;50.950;11.762;2023-02-15T06:35:30;12.43;;;9.43;;
17504;SDS011;8870;50.950;11.762;2023-02-15T06:41:04;8.73;;;7.80;;
17504;SDS011;8870;50.950;11.762;2023-02-15T06:46:35;8.38;;;7.50;;
17504;SDS011;8870;50.950;11.762;2023-02-15T06:51:53;7.15;;;6.45;;
17504;SDS011;8870;50.950;11.762;2023-02-15T06:57:30;6.97;;;5.78;;
17504;SDS011;8870;50.950;11.762;2023-02-15T07:02:52;6.03;;;5.45;;
17504;SDS011;8870;50.950;11.762;2023-02-15T07:08:24;6.50;;;5.80;;
17504;SDS011;8870;50.950;11.762;2023-02-15T07:13:46;6.65;;;6.05;;
17504;SDS011;8870;50.950;11.762;2023-02-15T07:19:18;6.93;;;6.22;;
17504;SDS011;8870;50.950;11.762;2023-02-15T07:24:36;7.70;;;6.88;;
17504;SDS011;8870;50.950;11.762;2023-02-15T07:30:11;10.05;;;6.90;;
17504;SDS011;8870;50.950;11.762;2023-02-15T07:35:30;8.02;;;7.22;;
17504;SDS011;8870;50.950;11.762;2023-02-15T07:41:02;8.35;;;7.30;;
17504;SDS011;8870;50.950;11.762;2023-02-15T07:46:38;8.70;;;7.80;;
17504;SDS011;8870;50.950;11.762;2023-02-15T07:51:56;8.93;;;8.02;;
17504;SDS011;8870;50.950;11.762;2023-02-15T07:57:28;9.60;;;8.20;;
17504;SDS011;8870;50.950;11.762;2023-02-15T08:02:50;8.95;;;8.02;;
17504;SDS011;8870;50.950;11.762;2023-02-15T08:08:34;6.63;;;5.78;;
17504;SDS011;8870;50.950;11.762;2023-02-15T08:13:53;5.00;;;4.07;;
17504;SDS011;8870;50.950;11.762;2023-02-15T08:19:29;4.65;;;4.15;;
17504;SDS011;8870;50.950;11.762;2023-02-15T08:24:49;3.90;;;3.50;;
17504;SDS011;8870;50.950;11.762;2023-02-15T08:30:20;3.50;;;3.20;;
17504;SDS011;8870;50.950;11.762;2023-02-15T08:35:42;4.63;;;3.40;;
17504;SDS011;8870;50.950;11.762;2023-02-15T08:41:14;3.25;;;2.95;;
17504;SDS011;8870;50.950;11.762;2023-02-15T08:46:47;3.78;;;3.35;;
17504;SDS011;8870;50.950;11.762;2023-02-15T08:52:09;3.60;;;3.20;;
17504;SDS011;8870;50.950;11.762;2023-02-15T08:57:40;4.65;;;4.25;;
17504;SDS011;8870;50.950;11.762;2023-02-15T09:03:00;17.38;;;14.45;;
17504;SDS011;8870;50.950;11.762;2023-02-15T09:08:34;5.60;;;5.00;;
17504;SDS011;8870;50.950;11.762;2023-02-15T09:13:53;5.10;;;4.60;;
17504;SDS011;8870;50.950;11.762;2023-02-15T09:19:25;5.13;;;4.55;;
17504;SDS011;8870;50.950;11.762;2023-02-15T09:24:46;4.10;;;3.70;;
17504;SDS011;8870;50.950;11.762;2023-02-15T09:30:17;4.20;;;3.80;;
17504;SDS011;8870;50.950;11.762;2023-02-15T09:35:35;3.63;;;3.33;;
17504;SDS011;8870;50.950;11.762;2023-02-15T09:41:14;3.45;;;3.15;;
17504;SDS011;8870;50.950;11.762;2023-02-15T09:47:19;2.97;;;2.67;;
17504;SDS011;8870;50.950;11.762;2023-02-15T09:52:59;2.72;;;2.53;;
17504;SDS011;8870;50.950;11.762;2023-02-15T09:58:46;3.22;;;2.20;;
17504;SDS011;8870;50.950;11.762;2023-02-15T10:04:19;3.25;;;2.00;;
17504;SDS011;8870;50.950;11.762;2023-02-15T10:10:13;2.40;;;2.20;;
17504;SDS011;8870;50.950;11.762;2023-02-15T10:15:49;2.20;;;2.00;;
17504;SDS011;8870;50.950;11.762;2023-02-15T10:21:33;2.28;;;2.00;;
17504;SDS011;8870;50.950;11.762;2023-02-15T10:27:01;1.73;;;1.63;;
17504;SDS011;8870;50.950;11.762;2023-02-15T10:32:42;2.40;;;1.73;;
17504;SDS011;8870;50.950;11.762;2023-02-15T10:38:16;2.30;;;2.10;;
17504;SDS011;8870;50.950;11.762;2023-02-15T10:43:58;2.65;;;1.80;;
17504;SDS011;8870;50.950;11.762;2023-02-15T10:49:40;2.22;;;1.88;;
17504;SDS011;8870;50.950;11.762;2023-02-15T10:55:24;1.90;;;1.70;;
17504;SDS011;8870;50.950;11.762;2023-02-15T11:00:52;2.08;;;1.75;;
17504;SDS011;8870;50.950;11.762;2023-02-15T11:06:35;4.43;;;1.77;;
17504;SDS011;8870;50.950;11.762;2023-02-15T11:11:56;2.17;;;2.00;;
17504;SDS011;8870;50.950;11.762;2023-02-15T11:17:32;2.90;;;2.38;;
17504;SDS011;8870;50.950;11.762;2023-02-15T11:22:57;2.50;;;2.10;;
17504;SDS011;8870;50.950;11.762;2023-02-15T11:28:37;2.30;;;2.10;;
17504;SDS011;8870;50.950;11.762;2023-02-15T11:34:01;3.17;;;2.08;;
17504;SDS011;8870;50.950;11.762;2023-02-15T11:39:40;2.30;;;2.10;;
17504;SDS011;8870;50.950;11.762;2023-02-15T11:45:19;3.03;;;1.90;;
17504;SDS011;8870;50.950;11.762;2023-02-15T11:50:44;1.88;;;1.58;;
17504;SDS011;8870;50.950;11.762;2023-02-15T11:56:19;2.15;;;1.90;;
17504;SDS011;8870;50.950;11.762;2023-02-15T12:01:40;2.25;;;1.88;;
17504;SDS011;8870;50.950;11.762;2023-02-15T12:07:14;2.03;;;1.67;;
17504;SDS011;8870;50.950;11.762;2023-02-15T12:12:43;1.92;;;1.73;;
17504;SDS011;8870;50.950;11.762;2023-02-15T12:18:19;2.72;;;1.55;;
17504;SDS011;8870;50.950;11.762;2023-02-15T12:23:46;1.50;;;1.40;;
17504;SDS011;8870;50.950;11.762;2023-02-15T12:29:22;2.03;;;1.50;;
17504;SDS011;8870;50.950;11.762;2023-02-15T12:34:44;2.30;;;1.40;;
17504;SDS011;8870;50.950;11.762;2023-02-15T12:40:20;1.40;;;1.30;;
17504;SDS011;8870;50.950;11.762;2023-02-15T12:45:43;2.00;;;1.17;;
17504;SDS011;8870;50.950;11.762;2023-02-15T12:51:15;1.27;;;1.10;;
17504;SDS011;8870;50.950;11.762;2023-02-15T12:56:33;2.13;;;1.10;;
17504;SDS011;8870;50.950;11.762;2023-02-15T13:02:09;1.58;;;1.30;;
17504;SDS011;8870;50.950;11.762;2023-02-15T13:07:37;1.10;;;1.00;;
17504;SDS011;8870;50.950;11.762;2023-02-15T13:13:09;1.80;;;1.25;;
17504;SDS011;8870;50.950;11.762;2023-02-15T13:18:33;1.20;;;1.10;;
17504;SDS011;8870;50.950;11.762;2023-02-15T13:24:10;2.80;;;1.10;;
17504;SDS011;8870;50.950;11.762;2023-02-15T13:29:36;1.20;;;1.00;;
17504;SDS011;8870;50.950;11.762;2023-02-15T13:35:13;0.95;;;0.90;;
17504;SDS011;8870;50.950;11.762;2023-02-15T13:40:41;1.15;;;0.80;;
17504;SDS011;8870;50.950;11.762;2023-02-15T13:46:21;3.75;;;0.90;;
17504;SDS011;8870;50.950;11.762;2023-02-15T13:51:55;3.65;;;0.80;;
17504;SDS011;8870;50.950;11.762;2023-02-15T14:03:47;0.73;;;0.63;;
17504;SDS011;8870;50.950;11.762;2023-02-15T14:09:37;1.10;;;0.65;;
17504;SDS011;8870;50.950;11.762;2023-02-15T14:15:05;2.70;;;0.70;;
17504;SDS011;8870;50.950;11.762;2023-02-15T14:20:46;0.50;;;0.50;;
17504;SDS011;8870;50.950;11.762;2023-02-15T14:26:14;0.88;;;0.65;;
17504;SDS011;8870;50.950;11.762;2023-02-15T14:31:54;2.47;;;0.75;;
17504;SDS011;8870;50.950;11.762;2023-02-15T14:37:19;1.05;;;0.60;;
17504;SDS011;8870;50.950;11.762;2023-02-15T14:43:00;0.95;;;0.70;;
17504;SDS011;8870;50.950;11.762;2023-02-15T14:48:41;1.25;;;0.60;;
17504;SDS011;8870;50.950;11.762;2023-02-15T14:54:03;1.23;;;0.70;;
17504;SDS011;8870;50.950;11.762;2023-02-15T14:59:38;0.90;;;0.70;;
17504;SDS011;8870;50.950;11.762;2023-02-15T15:05:01;1.25;;;0.90;;
17504;SDS011;8870;50.950;11.762;2023-02-15T15:10:41;1.92;;;1.00;;
17504;SDS011;8870;50.950;11.762;2023-02-15T15:16:23;3.53;;;1.40;;
17504;SDS011;8870;50.950;11.762;2023-02-15T15:22:02;4.80;;;2.10;;
17504;SDS011;8870;50.950;11.762;2023-02-15T15:27:39;2.95;;;2.20;;
17504;SDS011;8870;50.950;11.762;2023-02-15T15:39:38;2.22;;;2.03;;
17504;SDS011;8870;50.950;11.762;2023-02-15T15:51:25;2.50;;;2.30;;
17504;SDS011;8870;50.950;11.762;2023-02-15T15:57:04;2.40;;;2.20;;
17504;SDS011;8870;50.950;11.762;2023-02-15T16:02:24;4.57;;;2.47;;
17504;SDS011;8870;50.950;11.762;2023-02-15T16:07:54;2.60;;;2.40;;
17504;SDS011;8870;50.950;11.762;2023-02-15T16:13:15;3.65;;;2.60;;
17504;SDS011;8870;50.950;11.762;2023-02-15T16:18:34;4.97;;;2.47;;
17504;SDS011;8870;50.950;11.762;2023-02-15T16:24:13;2.80;;;2.45;;
17504;SDS011;8870;50.950;11.762;2023-02-15T16:29:44;5.45;;;2.90;;
17504;SDS011;8870;50.950;11.762;2023-02-15T16:35:16;3.30;;;3.00;;
17504;SDS011;8870;50.950;11.762;2023-02-15T16:40:51;3.75;;;3.10;;
17504;SDS011;8870;50.950;11.762;2023-02-15T16:46:27;3.90;;;2.97;;
17504;SDS011;8870;50.950;11.762;2023-02-15T16:51:53;3.90;;;2.90;;
17504;SDS011;8870;50.950;11.762;2023-02-15T16:57:28;3.38;;;3.08;;
17504;SDS011;8870;50.950;11.762;2023-02-15T17:02:57;3.80;;;3.10;;
17504;SDS011;8870;50.950;11.762;2023-02-15T17:08:31;3.60;;;3.08;;
17504;SDS011;8870;50.950;11.762;2023-02-15T17:19:47;3.63;;;3.00;;
17504;SDS011;8870;50.950;11.762;2023-02-15T17:25:16;4.00;;;3.60;;
17504;SDS011;8870;50.950;11.762;2023-02-15T17:30:49;4.95;;;3.28;;
17504;SDS011;8870;50.950;11.762;2023-02-15T17:36:14;4.85;;;3.20;;
17504;SDS011;8870;50.950;11.762;2023-02-15T17:41:49;4.70;;;3.65;;
17504;SDS011;8870;50.950;11.762;2023-02-15T17:47:22;4.78;;;4.25;;
17504;SDS011;8870;50.950;11.762;2023-02-15T17:52:46;5.97;;;5.30;;
17504;SDS011;8870;50.950;11.762;2023-02-15T17:58:18;4.45;;;4.05;;
17504;SDS011;8870;50.950;11.762;2023-02-15T18:03:39;3.90;;;3.50;;
17504;SDS011;8870;50.950;11.762;2023-02-15T18:09:27;3.00;;;2.70;;
17504;SDS011;8870;50.950;11.762;2023-02-15T18:14:58;4.13;;;3.10;;
17504;SDS011;8870;50.950;11.762;2023-02-15T18:20:31;2.92;;;2.45;;
17504;SDS011;8870;50.950;11.762;2023-02-15T18:25:53;2.58;;;2.38;;
17504;SDS011;8870;50.950;11.762;2023-02-15T18:31:24;2.72;;;2.40;;
17504;SDS011;8870;50.950;11.762;2023-02-15T18:36:43;2.67;;;2.28;;
17504;SDS011;8870;50.950;11.762;2023-02-15T18:42:20;2.67;;;2.38;;
17504;SDS011;8870;50.950;11.762;2023-02-15T18:47:41;2.47;;;2.25;;
17504;SDS011;8870;50.950;11.762;2023-02-15T18:53:14;3.03;;;2.20;;
17504;SDS011;8870;50.950;11.762;2023-02-15T18:58:37;2.58;;;2.03;;
17504;SDS011;8870;50.950;11.762;2023-02-15T19:04:10;2.50;;;2.25;;
17504;SDS011;8870;50.950;11.762;2023-02-15T19:09:32;2.47;;;2.20;;
17504;SDS011;8870;50.950;11.762;2023-02-15T19:15:05;2.40;;;2.20;;
17504;SDS011;8870;50.950;11.762;2023-02-15T19:20:31;2.35;;;2.15;;
17504;SDS011;8870;50.950;11.762;2023-02-15T19:26:05;3.67;;;2.22;;
17504;SDS011;8870;50.950;11.762;2023-02-15T19:31:26;2.90;;;2.50;;
17504;SDS011;8870;50.950;11.762;2023-02-15T19:36:57;3.05;;;2.50;;
17504;SDS011;8870;50.950;11.762;2023-02-15T19:42:22;3.13;;;2.67;;
17504;SDS011;8870;50.950;11.762;2023-02-15T19:47:58;2.80;;;2.50;;
17504;SDS011;8870;50.950;11.762;2023-02-15T19:53:21;2.83;;;2.53;;
17504;SDS011;8870;50.950;11.762;2023-02-15T19:58:53;3.40;;;2.50;;
17504;SDS011;8870;50.950;11.762;2023-02-15T20:04:15;2.55;;;2.35;;
17504;SDS011;8870;50.950;11.762;2023-02-15T20:09:46;2.90;;;2.60;;
17504;SDS011;8870;50.950;11.762;2023-02-15T20:15:18;3.05;;;2.63;;
17504;SDS011;8870;50.950;11.762;2023-02-15T20:20:53;3.33;;;2.72;;
17504;SDS011;8870;50.950;11.762;2023-02-15T20:26:12;2.95;;;2.67;;
17504;SDS011;8870;50.950;11.762;2023-02-15T20:31:49;3.03;;;2.73;;
17504;SDS011;8870;50.950;11.762;2023-02-15T20:37:13;3.63;;;2.80;;
17504;SDS011;8870;50.950;11.762;2023-02-15T20:42:52;3.38;;;3.05;;
17504;SDS011;8870;50.950;11.762;2023-02-15T20:48:10;4.20;;;3.10;;
17504;SDS011;8870;50.950;11.762;2023-02-15T20:53:43;4.35;;;3.20;;
17504;SDS011;8870;50.950;11.762;2023-02-15T20:59:04;3.65;;;3.13;;
17504;SDS011;8870;50.950;11.762;2023-02-15T21:04:42;3.60;;;3.30;;
17504;SDS011;8870;50.950;11.762;2023-02-15T21:10:02;4.22;;;3.50;;
17504;SDS011;8870;50.950;11.762;2023-02-15T21:15:35;3.60;;;3.30;;
17504;SDS011;8870;50.950;11.762;2023-02-15T21:20:56;4.05;;;3.55;;
17504;SDS011;8870;50.950;11.762;2023-02-15T21:26:32;4.00;;;3.60;;
17504;SDS011;8870;50.950;11.762;2023-02-15T21:31:51;3.97;;;3.60;;
17504;SDS011;8870;50.950;11.762;2023-02-15T21:37:26;4.45;;;3.90;;
17504;SDS011;8870;50.950;11.762;2023-02-15T21:42:50;5.05;;;3.88;;
17504;SDS011;8870;50.950;11.762;2023-02-15T21:48:34;6.20;;;3.88;;
17504;SDS011;8870;50.950;11.762;2023-02-15T21:53:53;5.15;;;4.40;;
17504;SDS011;8870;50.950;11.762;2023-02-15T21:59:27;5.82;;;4.45;;
17504;SDS011;8870;50.950;11.762;2023-02-15T22:04:46;5.28;;;4.50;;
17504;SDS011;8870;50.950;11.762;2023-02-15T22:10:18;6.70;;;4.82;;
17504;SDS011;8870;50.950;11.762;2023-02-15T22:15:38;5.07;;;4.55;;
17504;SDS011;8870;50.950;11.762;2023-02-15T22:21:11;4.25;;;3.85;;
17504;SDS011;8870;50.950;11.762;2023-02-15T22:26:30;5.30;;;4.80;;
17504;SDS011;8870;50.950;11.762;2023-02-15T22:32:04;5.20;;;4.70;;
17504;SDS011;8870;50.950;11.762;2023-02-15T22:37:28;5.22;;;4.50;;
17504;SDS011;8870;50.950;11.762;2023-02-15T22:42:59;4.80;;;4.30;;
17504;SDS011;8870;50.950;11.762;2023-02-15T22:48:22;5.18;;;4.47;;
17504;SDS011;8870;50.950;11.762;2023-02-15T22:53:54;4.97;;;4.47;;
17504;SDS011;8870;50.950;11.762;2023-02-15T22:59:14;5.25;;;4.75;;
17504;SDS011;8870;50.950;11.762;2023-02-15T23:04:52;6.63;;;5.73;;
17504;SDS011;8870;50.950;11.762;2023-02-15T23:10:11;5.82;;;4.90;;
17504;SDS011;8870;50.950;11.762;2023-02-15T23:15:46;6.13;;;5.40;;
17504;SDS011;8870;50.950;11.762;2023-02-15T23:21:12;6.78;;;5.90;;
17504;SDS011;8870;50.950;11.762;2023-02-15T23:26:49;6.10;;;5.50;;
17504;SDS011;8870;50.950;11.762;2023-02-15T23:32:08;5.95;;;5.30;;
17504;SDS011;8870;50.950;11.762;2023-02-15T23:37:46;7.22;;;5.38;;
17504;SDS011;8870;50.950;11.762;2023-02-15T23:43:14;6.57;;;5.53;;
17504;SDS011;8870;50.950;11.762;2023-02-15T23:48:52;6.75;;;6.05;;
17504;SDS011;8870;50.950;11.762;2023-02-15T23:54:13;7.30;;;6.32;;
17504;SDS011;8870;50.950;11.762;2023-02-15T23:59:45;6.40;;;5.75;;
